Briefing drone pour Jussac

Rechercher une autre localisation

Conditions de vol :


Nous sommes le : Vendredi 16 avril 2021
Il est 20:03 UTC (22:03 LT)

Lever de soleil : 04:36 UTC (06:36 LT)
Coucher de soleil : 19:03 UTC (21:03 LT)

Météo

L'essentiel des conditions de vol

VIGILANCE MÉTÉO FRANCE - Cantal (15)
Pas de vigilances particulieres
METAR de LFLW
LFLW 161930Z AUTO 31003KT 280V360 CAVOK 03/M03 Q1020

Date d'émission: 16/04/2021
Heure d'émission: 19:30 UTC
Vent: 310° (variable du 280° au 360°) pour 3 KT (6 km/h)
Visibilité horizontale: > 10 km
Plafond : Plafond et visibilité OK (CAVOK)
Température: 3 °C
Point de rosée: -3 °C
Humidité: 65%
Pression (QNH): 1020 hPa
Prévision 24h pour Aurillac (5 km)
Vent : 24° pour 3 KT (11 km/h)
Temperature Maxi: 11 °C
Temperature Min: 11 °C
Humidité : 30%
Condition : Partiellement nuageux



Warning: count(): Parameter must be an array or an object that implements Countable in /homepages/6/d509196549/htdocs/droneoxygene/briefing.php on line 743
WEBCAM POUR JUSSAC

Réglementation

Voler en sécurité

CARTES AERONAUTIQUE 1/500.000
CARTES VAC (LFLW)
SUP AIP




Chargement des AIP...
NOTAM (JUSSAC + Terrain à proximité / FIR )




Chargement des NOTAMS...
CONTACT PREFECTURE 15


Avertissement : Les données mises à disposition sont indicatives. Oxygène Drone ne pourra être tenu responsable de dégâts causés aux biens et aux personnes.